sensor_id;sensor_type;location;lat;lon;timestamp;P1;durP1;ratioP1;P2;durP2;ratioP2
7233;SDS011;3658;47.992;10.158;2023-12-28T00:00:02;2.20;;;1.83;;
7233;SDS011;3658;47.992;10.158;2023-12-28T00:02:29;1.73;;;1.60;;
7233;SDS011;3658;47.992;10.158;2023-12-28T00:04:56;2.03;;;1.80;;
7233;SDS011;3658;47.992;10.158;2023-12-28T00:07:23;1.73;;;1.63;;
7233;SDS011;3658;47.992;10.158;2023-12-28T00:09:51;2.00;;;1.60;;
7233;SDS011;3658;47.992;10.158;2023-12-28T00:12:18;1.90;;;1.43;;
7233;SDS011;3658;47.992;10.158;2023-12-28T00:14:44;2.60;;;1.47;;
7233;SDS011;3658;47.992;10.158;2023-12-28T00:17:11;2.43;;;1.50;;
7233;SDS011;3658;47.992;10.158;2023-12-28T00:19:38;1.83;;;1.57;;
7233;SDS011;3658;47.992;10.158;2023-12-28T00:22:05;1.60;;;1.50;;
7233;SDS011;3658;47.992;10.158;2023-12-28T00:24:31;1.80;;;1.70;;
7233;SDS011;3658;47.992;10.158;2023-12-28T00:26:59;2.27;;;1.63;;
7233;SDS011;3658;47.992;10.158;2023-12-28T00:29:26;1.97;;;1.47;;
7233;SDS011;3658;47.992;10.158;2023-12-28T00:31:53;1.57;;;1.47;;
7233;SDS011;3658;47.992;10.158;2023-12-28T00:34:20;1.37;;;1.27;;
7233;SDS011;3658;47.992;10.158;2023-12-28T00:36:47;1.37;;;1.27;;
7233;SDS011;3658;47.992;10.158;2023-12-28T00:39:14;2.27;;;1.73;;
7233;SDS011;3658;47.992;10.158;2023-12-28T00:41:41;1.40;;;1.30;;
7233;SDS011;3658;47.992;10.158;2023-12-28T00:44:09;1.37;;;1.27;;
7233;SDS011;3658;47.992;10.158;2023-12-28T00:46:36;2.57;;;1.50;;
7233;SDS011;3658;47.992;10.158;2023-12-28T00:49:02;1.63;;;1.53;;
7233;SDS011;3658;47.992;10.158;2023-12-28T00:51:29;1.63;;;1.50;;
7233;SDS011;3658;47.992;10.158;2023-12-28T00:53:56;1.43;;;1.33;;
7233;SDS011;3658;47.992;10.158;2023-12-28T00:56:23;1.50;;;1.40;;
7233;SDS011;3658;47.992;10.158;2023-12-28T00:58:49;1.50;;;1.27;;
7233;SDS011;3658;47.992;10.158;2023-12-28T01:01:18;1.50;;;1.40;;
7233;SDS011;3658;47.992;10.158;2023-12-28T01:03:44;1.97;;;1.60;;
7233;SDS011;3658;47.992;10.158;2023-12-28T01:06:11;1.67;;;1.40;;
7233;SDS011;3658;47.992;10.158;2023-12-28T01:08:38;1.60;;;1.50;;
7233;SDS011;3658;47.992;10.158;2023-12-28T01:11:05;2.27;;;1.23;;
7233;SDS011;3658;47.992;10.158;2023-12-28T01:13:31;1.90;;;1.70;;
7233;SDS011;3658;47.992;10.158;2023-12-28T01:15:58;1.57;;;1.47;;
7233;SDS011;3658;47.992;10.158;2023-12-28T01:18:26;1.60;;;1.50;;
7233;SDS011;3658;47.992;10.158;2023-12-28T01:20:53;1.70;;;1.30;;
7233;SDS011;3658;47.992;10.158;2023-12-28T01:23:20;2.60;;;1.50;;
7233;SDS011;3658;47.992;10.158;2023-12-28T01:25:47;1.50;;;1.40;;
7233;SDS011;3658;47.992;10.158;2023-12-28T01:28:13;1.37;;;1.27;;
7233;SDS011;3658;47.992;10.158;2023-12-28T01:30:40;1.97;;;1.40;;
7233;SDS011;3658;47.992;10.158;2023-12-28T01:33:09;1.73;;;1.57;;
7233;SDS011;3658;47.992;10.158;2023-12-28T01:35:37;1.43;;;1.33;;
7233;SDS011;3658;47.992;10.158;2023-12-28T01:38:04;1.40;;;1.30;;
7233;SDS011;3658;47.992;10.158;2023-12-28T01:40:31;1.37;;;1.27;;
7233;SDS011;3658;47.992;10.158;2023-12-28T01:42:58;1.33;;;1.23;;
7233;SDS011;3658;47.992;10.158;2023-12-28T01:45:24;1.83;;;1.57;;
7233;SDS011;3658;47.992;10.158;2023-12-28T01:47:52;1.30;;;1.20;;
7233;SDS011;3658;47.992;10.158;2023-12-28T01:50:20;1.33;;;1.23;;
7233;SDS011;3658;47.992;10.158;2023-12-28T01:52:49;1.27;;;1.17;;
7233;SDS011;3658;47.992;10.158;2023-12-28T01:55:16;1.77;;;1.43;;
7233;SDS011;3658;47.992;10.158;2023-12-28T01:57:43;1.33;;;1.23;;
7233;SDS011;3658;47.992;10.158;2023-12-28T02:00:11;1.30;;;1.20;;
7233;SDS011;3658;47.992;10.158;2023-12-28T02:02:38;1.57;;;1.37;;
7233;SDS011;3658;47.992;10.158;2023-12-28T02:05:07;1.27;;;1.17;;
7233;SDS011;3658;47.992;10.158;2023-12-28T02:07:34;1.30;;;1.20;;
7233;SDS011;3658;47.992;10.158;2023-12-28T02:10:04;1.23;;;1.20;;
7233;SDS011;3658;47.992;10.158;2023-12-28T02:12:32;1.50;;;1.40;;
7233;SDS011;3658;47.992;10.158;2023-12-28T02:14:59;1.47;;;1.37;;
7233;SDS011;3658;47.992;10.158;2023-12-28T02:17:28;1.20;;;1.10;;
7233;SDS011;3658;47.992;10.158;2023-12-28T02:19:59;1.20;;;1.10;;
7233;SDS011;3658;47.992;10.158;2023-12-28T02:22:30;1.30;;;1.20;;
7233;SDS011;3658;47.992;10.158;2023-12-28T02:25:08;1.67;;;1.50;;
7233;SDS011;3658;47.992;10.158;2023-12-28T02:27:37;1.30;;;1.20;;
7233;SDS011;3658;47.992;10.158;2023-12-28T02:30:06;1.07;;;1.07;;
7233;SDS011;3658;47.992;10.158;2023-12-28T02:32:46;1.60;;;1.50;;
7233;SDS011;3658;47.992;10.158;2023-12-28T02:35:19;1.20;;;1.10;;
7233;SDS011;3658;47.992;10.158;2023-12-28T02:37:51;1.30;;;1.20;;
7233;SDS011;3658;47.992;10.158;2023-12-28T02:40:21;1.20;;;1.10;;
7233;SDS011;3658;47.992;10.158;2023-12-28T02:42:49;1.40;;;1.30;;
7233;SDS011;3658;47.992;10.158;2023-12-28T02:45:17;1.40;;;1.30;;
7233;SDS011;3658;47.992;10.158;2023-12-28T02:47:44;1.30;;;1.20;;
7233;SDS011;3658;47.992;10.158;2023-12-28T02:50:11;1.40;;;1.30;;
7233;SDS011;3658;47.992;10.158;2023-12-28T02:52:38;1.20;;;1.10;;
7233;SDS011;3658;47.992;10.158;2023-12-28T02:55:05;1.30;;;1.20;;
7233;SDS011;3658;47.992;10.158;2023-12-28T02:57:34;1.20;;;1.10;;
7233;SDS011;3658;47.992;10.158;2023-12-28T03:00:04;1.20;;;1.10;;
7233;SDS011;3658;47.992;10.158;2023-12-28T03:02:33;1.20;;;1.10;;
7233;SDS011;3658;47.992;10.158;2023-12-28T03:05:00;1.30;;;1.20;;
7233;SDS011;3658;47.992;10.158;2023-12-28T03:07:27;0.87;;;0.87;;
7233;SDS011;3658;47.992;10.158;2023-12-28T03:09:54;1.10;;;1.10;;
7233;SDS011;3658;47.992;10.158;2023-12-28T03:12:21;1.00;;;1.00;;
7233;SDS011;3658;47.992;10.158;2023-12-28T03:14:49;1.13;;;1.10;;
7233;SDS011;3658;47.992;10.158;2023-12-28T03:17:16;1.20;;;1.10;;
7233;SDS011;3658;47.992;10.158;2023-12-28T03:19:42;1.40;;;1.30;;
7233;SDS011;3658;47.992;10.158;2023-12-28T03:22:09;1.20;;;1.10;;
7233;SDS011;3658;47.992;10.158;2023-12-28T03:24:36;1.07;;;1.00;;
7233;SDS011;3658;47.992;10.158;2023-12-28T03:27:03;1.20;;;1.10;;
7233;SDS011;3658;47.992;10.158;2023-12-28T03:29:30;1.03;;;1.03;;
7233;SDS011;3658;47.992;10.158;2023-12-28T03:31:59;1.20;;;1.10;;
7233;SDS011;3658;47.992;10.158;2023-12-28T03:34:25;1.20;;;1.10;;
7233;SDS011;3658;47.992;10.158;2023-12-28T03:36:54;1.17;;;1.07;;
7233;SDS011;3658;47.992;10.158;2023-12-28T03:39:22;0.90;;;0.90;;
7233;SDS011;3658;47.992;10.158;2023-12-28T03:41:49;1.40;;;1.30;;
7233;SDS011;3658;47.992;10.158;2023-12-28T03:44:15;1.30;;;1.20;;
7233;SDS011;3658;47.992;10.158;2023-12-28T03:46:42;0.90;;;0.90;;
7233;SDS011;3658;47.992;10.158;2023-12-28T03:49:10;1.30;;;1.20;;
7233;SDS011;3658;47.992;10.158;2023-12-28T03:51:37;1.00;;;1.00;;
7233;SDS011;3658;47.992;10.158;2023-12-28T03:54:04;1.10;;;1.00;;
7233;SDS011;3658;47.992;10.158;2023-12-28T03:56:31;0.97;;;0.97;;
7233;SDS011;3658;47.992;10.158;2023-12-28T03:59:00;1.30;;;1.20;;
7233;SDS011;3658;47.992;10.158;2023-12-28T04:01:27;1.20;;;1.00;;
7233;SDS011;3658;47.992;10.158;2023-12-28T04:03:54;1.30;;;1.20;;
7233;SDS011;3658;47.992;10.158;2023-12-28T04:06:22;0.93;;;0.90;;
7233;SDS011;3658;47.992;10.158;2023-12-28T04:08:49;1.20;;;1.10;;
7233;SDS011;3658;47.992;10.158;2023-12-28T04:11:15;1.10;;;1.00;;
7233;SDS011;3658;47.992;10.158;2023-12-28T04:13:42;1.10;;;1.00;;
7233;SDS011;3658;47.992;10.158;2023-12-28T04:16:11;0.93;;;0.87;;
7233;SDS011;3658;47.992;10.158;2023-12-28T04:18:39;0.90;;;0.90;;
7233;SDS011;3658;47.992;10.158;2023-12-28T04:21:07;0.87;;;0.87;;
7233;SDS011;3658;47.992;10.158;2023-12-28T04:23:37;0.73;;;0.73;;
7233;SDS011;3658;47.992;10.158;2023-12-28T04:26:04;0.90;;;0.90;;
7233;SDS011;3658;47.992;10.158;2023-12-28T04:28:31;0.97;;;0.97;;
7233;SDS011;3658;47.992;10.158;2023-12-28T04:31:01;1.00;;;1.00;;
7233;SDS011;3658;47.992;10.158;2023-12-28T04:33:28;1.00;;;1.00;;
7233;SDS011;3658;47.992;10.158;2023-12-28T04:35:55;1.07;;;1.00;;
7233;SDS011;3658;47.992;10.158;2023-12-28T04:38:22;1.00;;;1.00;;
7233;SDS011;3658;47.992;10.158;2023-12-28T04:40:50;0.90;;;0.90;;
7233;SDS011;3658;47.992;10.158;2023-12-28T04:43:17;0.90;;;0.90;;
7233;SDS011;3658;47.992;10.158;2023-12-28T04:45:44;0.90;;;0.90;;
7233;SDS011;3658;47.992;10.158;2023-12-28T04:48:11;0.90;;;0.90;;
7233;SDS011;3658;47.992;10.158;2023-12-28T04:50:37;0.97;;;0.97;;
7233;SDS011;3658;47.992;10.158;2023-12-28T04:53:04;0.83;;;0.83;;
7233;SDS011;3658;47.992;10.158;2023-12-28T04:55:31;1.00;;;0.93;;
7233;SDS011;3658;47.992;10.158;2023-12-28T04:57:59;1.20;;;1.10;;
7233;SDS011;3658;47.992;10.158;2023-12-28T05:00:26;0.90;;;0.90;;
7233;SDS011;3658;47.992;10.158;2023-12-28T05:02:53;1.27;;;1.10;;
7233;SDS011;3658;47.992;10.158;2023-12-28T05:05:19;1.13;;;1.03;;
7233;SDS011;3658;47.992;10.158;2023-12-28T05:07:46;0.90;;;0.90;;
7233;SDS011;3658;47.992;10.158;2023-12-28T05:10:13;0.80;;;0.80;;
7233;SDS011;3658;47.992;10.158;2023-12-28T05:12:40;0.90;;;0.90;;
7233;SDS011;3658;47.992;10.158;2023-12-28T05:15:09;1.23;;;1.13;;
7233;SDS011;3658;47.992;10.158;2023-12-28T05:17:36;0.93;;;0.93;;
7233;SDS011;3658;47.992;10.158;2023-12-28T05:20:04;0.90;;;0.90;;
7233;SDS011;3658;47.992;10.158;2023-12-28T05:22:31;0.80;;;0.80;;
7233;SDS011;3658;47.992;10.158;2023-12-28T05:24:58;0.80;;;0.80;;
7233;SDS011;3658;47.992;10.158;2023-12-28T05:27:25;0.90;;;0.90;;
7233;SDS011;3658;47.992;10.158;2023-12-28T05:29:52;0.80;;;0.80;;
7233;SDS011;3658;47.992;10.158;2023-12-28T05:32:20;1.10;;;1.00;;
7233;SDS011;3658;47.992;10.158;2023-12-28T05:34:47;1.07;;;1.00;;
7233;SDS011;3658;47.992;10.158;2023-12-28T05:37:15;0.80;;;0.80;;
7233;SDS011;3658;47.992;10.158;2023-12-28T05:39:41;0.87;;;0.87;;
7233;SDS011;3658;47.992;10.158;2023-12-28T05:42:08;0.90;;;0.90;;
7233;SDS011;3658;47.992;10.158;2023-12-28T05:44:35;0.73;;;0.73;;
7233;SDS011;3658;47.992;10.158;2023-12-28T05:47:02;0.90;;;0.90;;
7233;SDS011;3658;47.992;10.158;2023-12-28T05:49:31;0.80;;;0.80;;
7233;SDS011;3658;47.992;10.158;2023-12-28T05:51:58;2.17;;;0.80;;
7233;SDS011;3658;47.992;10.158;2023-12-28T05:54:25;0.90;;;0.90;;
7233;SDS011;3658;47.992;10.158;2023-12-28T05:56:51;0.80;;;0.80;;
7233;SDS011;3658;47.992;10.158;2023-12-28T05:59:18;1.40;;;1.00;;
7233;SDS011;3658;47.992;10.158;2023-12-28T06:01:46;1.20;;;1.10;;
7233;SDS011;3658;47.992;10.158;2023-12-28T06:04:13;1.20;;;1.10;;
7233;SDS011;3658;47.992;10.158;2023-12-28T06:06:41;1.67;;;0.93;;
7233;SDS011;3658;47.992;10.158;2023-12-28T06:09:08;1.33;;;1.23;;
7233;SDS011;3658;47.992;10.158;2023-12-28T06:11:35;1.13;;;1.00;;
7233;SDS011;3658;47.992;10.158;2023-12-28T06:14:01;1.53;;;1.23;;
7233;SDS011;3658;47.992;10.158;2023-12-28T06:16:28;1.07;;;0.90;;
7233;SDS011;3658;47.992;10.158;2023-12-28T06:18:57;1.10;;;1.00;;
7233;SDS011;3658;47.992;10.158;2023-12-28T06:21:25;1.07;;;1.00;;
7233;SDS011;3658;47.992;10.158;2023-12-28T06:23:53;1.00;;;0.90;;
7233;SDS011;3658;47.992;10.158;2023-12-28T06:26:20;1.27;;;0.90;;
7233;SDS011;3658;47.992;10.158;2023-12-28T06:28:47;1.20;;;1.10;;
7233;SDS011;3658;47.992;10.158;2023-12-28T06:31:14;0.93;;;0.90;;
7233;SDS011;3658;47.992;10.158;2023-12-28T06:33:40;1.67;;;1.07;;
7233;SDS011;3658;47.992;10.158;2023-12-28T06:36:09;1.20;;;1.10;;
7233;SDS011;3658;47.992;10.158;2023-12-28T06:38:37;1.20;;;1.10;;
7233;SDS011;3658;47.992;10.158;2023-12-28T06:41:10;1.07;;;0.97;;
7233;SDS011;3658;47.992;10.158;2023-12-28T06:43:37;1.00;;;0.97;;
7233;SDS011;3658;47.992;10.158;2023-12-28T06:46:04;0.93;;;0.93;;
7233;SDS011;3658;47.992;10.158;2023-12-28T06:48:31;1.67;;;1.00;;
7233;SDS011;3658;47.992;10.158;2023-12-28T06:50:58;0.90;;;0.90;;
7233;SDS011;3658;47.992;10.158;2023-12-28T06:53:24;1.17;;;1.07;;
7233;SDS011;3658;47.992;10.158;2023-12-28T06:55:51;1.13;;;1.00;;
7233;SDS011;3658;47.992;10.158;2023-12-28T06:58:19;0.83;;;0.83;;
7233;SDS011;3658;47.992;10.158;2023-12-28T07:00:46;1.00;;;1.00;;
7233;SDS011;3658;47.992;10.158;2023-12-28T07:03:13;1.20;;;1.10;;
7233;SDS011;3658;47.992;10.158;2023-12-28T07:05:40;1.17;;;1.00;;
7233;SDS011;3658;47.992;10.158;2023-12-28T07:08:06;1.30;;;1.20;;
7233;SDS011;3658;47.992;10.158;2023-12-28T07:10:33;1.13;;;0.90;;
7233;SDS011;3658;47.992;10.158;2023-12-28T07:13:01;1.13;;;1.03;;
7233;SDS011;3658;47.992;10.158;2023-12-28T07:15:29;0.97;;;0.90;;
7233;SDS011;3658;47.992;10.158;2023-12-28T07:17:56;1.00;;;0.90;;
7233;SDS011;3658;47.992;10.158;2023-12-28T07:20:23;1.00;;;1.00;;
7233;SDS011;3658;47.992;10.158;2023-12-28T07:22:50;1.50;;;1.13;;
7233;SDS011;3658;47.992;10.158;2023-12-28T07:25:17;1.20;;;1.10;;
7233;SDS011;3658;47.992;10.158;2023-12-28T07:27:44;0.90;;;0.90;;
7233;SDS011;3658;47.992;10.158;2023-12-28T07:30:11;1.00;;;0.90;;
7233;SDS011;3658;47.992;10.158;2023-12-28T07:32:40;0.80;;;0.80;;
7233;SDS011;3658;47.992;10.158;2023-12-28T07:35:06;0.97;;;0.97;;
7233;SDS011;3658;47.992;10.158;2023-12-28T07:37:33;0.90;;;0.90;;
7233;SDS011;3658;47.992;10.158;2023-12-28T07:40:01;1.10;;;1.03;;
7233;SDS011;3658;47.992;10.158;2023-12-28T07:42:28;1.10;;;1.00;;
7233;SDS011;3658;47.992;10.158;2023-12-28T07:44:54;1.00;;;0.90;;
7233;SDS011;3658;47.992;10.158;2023-12-28T07:47:21;1.00;;;1.00;;
7233;SDS011;3658;47.992;10.158;2023-12-28T07:49:49;1.10;;;1.00;;
7233;SDS011;3658;47.992;10.158;2023-12-28T07:52:16;1.10;;;1.00;;
7233;SDS011;3658;47.992;10.158;2023-12-28T07:54:43;0.90;;;0.80;;
7233;SDS011;3658;47.992;10.158;2023-12-28T07:57:10;1.20;;;1.00;;
7233;SDS011;3658;47.992;10.158;2023-12-28T07:59:37;1.00;;;0.90;;
7233;SDS011;3658;47.992;10.158;2023-12-28T08:02:04;1.57;;;1.03;;
7233;SDS011;3658;47.992;10.158;2023-12-28T08:04:33;1.10;;;1.00;;
7233;SDS011;3658;47.992;10.158;2023-12-28T08:07:01;1.10;;;1.00;;
7233;SDS011;3658;47.992;10.158;2023-12-28T08:09:29;1.17;;;1.00;;
7233;SDS011;3658;47.992;10.158;2023-12-28T08:11:56;0.90;;;0.90;;
7233;SDS011;3658;47.992;10.158;2023-12-28T08:14:22;1.00;;;0.80;;
7233;SDS011;3658;47.992;10.158;2023-12-28T08:16:49;1.10;;;1.00;;
7233;SDS011;3658;47.992;10.158;2023-12-28T08:19:17;0.90;;;0.90;;
7233;SDS011;3658;47.992;10.158;2023-12-28T08:21:44;1.10;;;1.00;;
7233;SDS011;3658;47.992;10.158;2023-12-28T08:24:12;1.00;;;1.00;;
7233;SDS011;3658;47.992;10.158;2023-12-28T08:26:39;1.00;;;0.90;;
7233;SDS011;3658;47.992;10.158;2023-12-28T08:29:06;1.00;;;0.90;;
7233;SDS011;3658;47.992;10.158;2023-12-28T08:31:33;3.27;;;1.03;;
7233;SDS011;3658;47.992;10.158;2023-12-28T08:34:00;1.90;;;1.20;;
7233;SDS011;3658;47.992;10.158;2023-12-28T08:36:27;3.50;;;0.83;;
7233;SDS011;3658;47.992;10.158;2023-12-28T08:38:54;3.83;;;1.20;;
7233;SDS011;3658;47.992;10.158;2023-12-28T08:41:23;0.90;;;0.87;;
7233;SDS011;3658;47.992;10.158;2023-12-28T08:43:50;2.43;;;1.00;;
7233;SDS011;3658;47.992;10.158;2023-12-28T08:46:18;0.90;;;0.90;;
7233;SDS011;3658;47.992;10.158;2023-12-28T08:48:45;3.90;;;1.00;;
7233;SDS011;3658;47.992;10.158;2023-12-28T08:51:12;1.30;;;1.20;;
7233;SDS011;3658;47.992;10.158;2023-12-28T08:53:39;0.90;;;0.90;;
7233;SDS011;3658;47.992;10.158;2023-12-28T08:56:13;2.07;;;1.00;;
7233;SDS011;3658;47.992;10.158;2023-12-28T08:58:43;0.93;;;0.90;;
7233;SDS011;3658;47.992;10.158;2023-12-28T09:01:15;1.27;;;1.17;;
7233;SDS011;3658;47.992;10.158;2023-12-28T09:03:42;1.40;;;1.00;;
7233;SDS011;3658;47.992;10.158;2023-12-28T09:06:09;1.30;;;1.10;;
7233;SDS011;3658;47.992;10.158;2023-12-28T09:08:36;0.80;;;0.80;;
7233;SDS011;3658;47.992;10.158;2023-12-28T09:11:03;1.13;;;1.03;;
7233;SDS011;3658;47.992;10.158;2023-12-28T09:13:30;3.93;;;0.90;;
7233;SDS011;3658;47.992;10.158;2023-12-28T09:15:58;1.17;;;1.07;;
7233;SDS011;3658;47.992;10.158;2023-12-28T09:18:25;1.70;;;1.13;;
7233;SDS011;3658;47.992;10.158;2023-12-28T09:20:52;2.73;;;0.93;;
7233;SDS011;3658;47.992;10.158;2023-12-28T09:23:19;1.93;;;0.90;;
7233;SDS011;3658;47.992;10.158;2023-12-28T09:25:45;1.27;;;1.00;;
7233;SDS011;3658;47.992;10.158;2023-12-28T09:28:12;1.23;;;1.13;;
7233;SDS011;3658;47.992;10.158;2023-12-28T09:30:39;1.23;;;1.13;;
7233;SDS011;3658;47.992;10.158;2023-12-28T09:33:07;3.10;;;1.00;;
7233;SDS011;3658;47.992;10.158;2023-12-28T09:35:34;2.13;;;1.00;;
7233;SDS011;3658;47.992;10.158;2023-12-28T09:38:02;1.60;;;1.10;;
7233;SDS011;3658;47.992;10.158;2023-12-28T09:40:28;1.00;;;0.97;;
7233;SDS011;3658;47.992;10.158;2023-12-28T09:42:57;1.50;;;1.00;;
7233;SDS011;3658;47.992;10.158;2023-12-28T09:45:29;1.23;;;1.10;;
7233;SDS011;3658;47.992;10.158;2023-12-28T09:47:56;1.30;;;1.00;;
7233;SDS011;3658;47.992;10.158;2023-12-28T09:50:24;1.17;;;1.00;;
7233;SDS011;3658;47.992;10.158;2023-12-28T09:52:51;1.17;;;1.07;;
7233;SDS011;3658;47.992;10.158;2023-12-28T09:55:19;0.90;;;0.90;;
7233;SDS011;3658;47.992;10.158;2023-12-28T09:57:46;1.30;;;1.20;;
7233;SDS011;3658;47.992;10.158;2023-12-28T10:00:14;1.20;;;1.10;;
7233;SDS011;3658;47.992;10.158;2023-12-28T10:02:43;1.53;;;1.03;;
7233;SDS011;3658;47.992;10.158;2023-12-28T10:05:12;1.03;;;1.00;;
7233;SDS011;3658;47.992;10.158;2023-12-28T10:07:41;0.90;;;0.90;;
7233;SDS011;3658;47.992;10.158;2023-12-28T10:10:08;1.20;;;1.10;;
7233;SDS011;3658;47.992;10.158;2023-12-28T10:12:35;1.20;;;1.10;;
7233;SDS011;3658;47.992;10.158;2023-12-28T10:15:02;1.30;;;1.20;;
7233;SDS011;3658;47.992;10.158;2023-12-28T10:17:32;2.60;;;0.90;;
7233;SDS011;3658;47.992;10.158;2023-12-28T10:19:59;1.60;;;0.83;;
7233;SDS011;3658;47.992;10.158;2023-12-28T10:22:29;1.13;;;0.90;;
7233;SDS011;3658;47.992;10.158;2023-12-28T10:24:58;1.20;;;1.00;;
7233;SDS011;3658;47.992;10.158;2023-12-28T10:27:25;1.10;;;1.00;;
7233;SDS011;3658;47.992;10.158;2023-12-28T10:29:53;1.20;;;0.90;;
7233;SDS011;3658;47.992;10.158;2023-12-28T10:32:21;1.27;;;0.93;;
7233;SDS011;3658;47.992;10.158;2023-12-28T10:34:49;1.00;;;1.00;;
7233;SDS011;3658;47.992;10.158;2023-12-28T10:37:17;1.30;;;1.20;;
7233;SDS011;3658;47.992;10.158;2023-12-28T10:39:46;1.10;;;1.00;;
7233;SDS011;3658;47.992;10.158;2023-12-28T10:42:16;0.90;;;0.90;;
7233;SDS011;3658;47.992;10.158;2023-12-28T10:44:52;1.20;;;1.10;;
7233;SDS011;3658;47.992;10.158;2023-12-28T10:47:21;1.00;;;0.90;;
7233;SDS011;3658;47.992;10.158;2023-12-28T10:49:52;0.87;;;0.87;;
7233;SDS011;3658;47.992;10.158;2023-12-28T10:52:21;1.27;;;1.10;;
7233;SDS011;3658;47.992;10.158;2023-12-28T10:54:55;0.80;;;0.80;;
7233;SDS011;3658;47.992;10.158;2023-12-28T10:57:37;1.30;;;1.13;;
7233;SDS011;3658;47.992;10.158;2023-12-28T11:00:10;2.13;;;1.03;;
7233;SDS011;3658;47.992;10.158;2023-12-28T11:02:41;1.40;;;1.10;;
7233;SDS011;3658;47.992;10.158;2023-12-28T11:05:11;1.07;;;1.00;;
7233;SDS011;3658;47.992;10.158;2023-12-28T11:07:38;8.77;;;1.10;;
7233;SDS011;3658;47.992;10.158;2023-12-28T11:10:07;1.10;;;1.00;;
7233;SDS011;3658;47.992;10.158;2023-12-28T11:12:36;1.03;;;1.00;;
7233;SDS011;3658;47.992;10.158;2023-12-28T11:15:04;3.43;;;1.10;;
7233;SDS011;3658;47.992;10.158;2023-12-28T11:17:33;1.10;;;1.00;;
7233;SDS011;3658;47.992;10.158;2023-12-28T11:20:01;0.97;;;0.97;;
7233;SDS011;3658;47.992;10.158;2023-12-28T11:22:30;0.93;;;0.90;;
7233;SDS011;3658;47.992;10.158;2023-12-28T11:24:58;1.40;;;1.10;;
7233;SDS011;3658;47.992;10.158;2023-12-28T11:27:24;1.63;;;1.10;;
7233;SDS011;3658;47.992;10.158;2023-12-28T11:30:00;1.20;;;1.07;;
7233;SDS011;3658;47.992;10.158;2023-12-28T11:32:28;1.30;;;1.20;;
7233;SDS011;3658;47.992;10.158;2023-12-28T11:34:58;3.07;;;1.10;;
7233;SDS011;3658;47.992;10.158;2023-12-28T11:37:25;1.03;;;0.93;;
7233;SDS011;3658;47.992;10.158;2023-12-28T11:39:54;1.03;;;1.00;;
7233;SDS011;3658;47.992;10.158;2023-12-28T11:42:23;1.43;;;0.93;;
7233;SDS011;3658;47.992;10.158;2023-12-28T11:44:53;0.93;;;0.90;;
7233;SDS011;3658;47.992;10.158;2023-12-28T11:47:23;1.07;;;1.03;;
7233;SDS011;3658;47.992;10.158;2023-12-28T11:49:52;1.10;;;1.00;;
7233;SDS011;3658;47.992;10.158;2023-12-28T11:52:23;3.33;;;1.10;;
7233;SDS011;3658;47.992;10.158;2023-12-28T11:54:51;4.23;;;1.10;;
7233;SDS011;3658;47.992;10.158;2023-12-28T11:57:18;2.13;;;0.90;;
7233;SDS011;3658;47.992;10.158;2023-12-28T11:59:45;1.30;;;1.20;;
7233;SDS011;3658;47.992;10.158;2023-12-28T12:02:12;1.23;;;1.13;;
7233;SDS011;3658;47.992;10.158;2023-12-28T12:04:41;1.63;;;1.00;;
7233;SDS011;3658;47.992;10.158;2023-12-28T12:07:09;2.00;;;0.90;;
7233;SDS011;3658;47.992;10.158;2023-12-28T12:09:36;1.43;;;1.20;;
7233;SDS011;3658;47.992;10.158;2023-12-28T12:12:03;1.50;;;1.30;;
7233;SDS011;3658;47.992;10.158;2023-12-28T12:14:31;1.20;;;1.10;;
7233;SDS011;3658;47.992;10.158;2023-12-28T12:16:58;1.20;;;1.10;;
7233;SDS011;3658;47.992;10.158;2023-12-28T12:19:25;1.20;;;1.10;;
7233;SDS011;3658;47.992;10.158;2023-12-28T12:21:54;1.83;;;1.50;;
7233;SDS011;3658;47.992;10.158;2023-12-28T12:24:21;1.20;;;1.10;;
7233;SDS011;3658;47.992;10.158;2023-12-28T12:26:49;3.67;;;1.20;;
7233;SDS011;3658;47.992;10.158;2023-12-28T12:29:17;1.60;;;1.17;;
7233;SDS011;3658;47.992;10.158;2023-12-28T12:31:44;1.30;;;1.20;;
7233;SDS011;3658;47.992;10.158;2023-12-28T12:34:15;1.40;;;1.10;;
7233;SDS011;3658;47.992;10.158;2023-12-28T12:36:42;3.20;;;1.43;;
7233;SDS011;3658;47.992;10.158;2023-12-28T12:39:10;1.47;;;1.07;;
7233;SDS011;3658;47.992;10.158;2023-12-28T12:41:38;2.00;;;1.13;;
7233;SDS011;3658;47.992;10.158;2023-12-28T12:44:05;2.10;;;1.40;;
7233;SDS011;3658;47.992;10.158;2023-12-28T12:46:35;1.47;;;1.33;;
7233;SDS011;3658;47.992;10.158;2023-12-28T12:49:02;1.87;;;1.20;;
7233;SDS011;3658;47.992;10.158;2023-12-28T12:51:29;1.50;;;1.17;;
7233;SDS011;3658;47.992;10.158;2023-12-28T12:53:56;1.27;;;1.17;;
7233;SDS011;3658;47.992;10.158;2023-12-28T12:56:25;2.87;;;1.40;;
7233;SDS011;3658;47.992;10.158;2023-12-28T12:58:52;2.03;;;1.37;;
7233;SDS011;3658;47.992;10.158;2023-12-28T13:01:21;1.20;;;1.10;;
7233;SDS011;3658;47.992;10.158;2023-12-28T13:03:48;1.77;;;1.40;;
7233;SDS011;3658;47.992;10.158;2023-12-28T13:06:15;1.30;;;1.20;;
7233;SDS011;3658;47.992;10.158;2023-12-28T13:08:43;1.70;;;1.27;;
7233;SDS011;3658;47.992;10.158;2023-12-28T13:11:10;1.40;;;1.30;;
7233;SDS011;3658;47.992;10.158;2023-12-28T13:13:38;2.23;;;1.30;;
7233;SDS011;3658;47.992;10.158;2023-12-28T13:16:06;1.33;;;1.20;;
7233;SDS011;3658;47.992;10.158;2023-12-28T13:18:32;1.97;;;1.57;;
7233;SDS011;3658;47.992;10.158;2023-12-28T13:21:00;1.20;;;1.10;;
7233;SDS011;3658;47.992;10.158;2023-12-28T13:23:27;1.30;;;1.20;;
7233;SDS011;3658;47.992;10.158;2023-12-28T13:25:55;1.63;;;1.20;;
7233;SDS011;3658;47.992;10.158;2023-12-28T13:28:22;4.93;;;1.30;;
7233;SDS011;3658;47.992;10.158;2023-12-28T13:30:50;1.70;;;1.40;;
7233;SDS011;3658;47.992;10.158;2023-12-28T13:33:20;1.47;;;1.37;;
7233;SDS011;3658;47.992;10.158;2023-12-28T13:35:49;3.80;;;1.33;;
7233;SDS011;3658;47.992;10.158;2023-12-28T13:38:16;2.00;;;1.70;;
7233;SDS011;3658;47.992;10.158;2023-12-28T13:40:44;1.60;;;1.33;;
7233;SDS011;3658;47.992;10.158;2023-12-28T13:43:10;2.10;;;1.50;;
7233;SDS011;3658;47.992;10.158;2023-12-28T13:45:38;1.83;;;1.40;;
7233;SDS011;3658;47.992;10.158;2023-12-28T13:48:06;2.03;;;1.37;;
7233;SDS011;3658;47.992;10.158;2023-12-28T13:50:34;1.80;;;1.40;;
7233;SDS011;3658;47.992;10.158;2023-12-28T13:53:00;1.67;;;1.30;;
7233;SDS011;3658;47.992;10.158;2023-12-28T13:55:28;1.50;;;1.40;;
7233;SDS011;3658;47.992;10.158;2023-12-28T13:57:54;1.73;;;1.40;;
7233;SDS011;3658;47.992;10.158;2023-12-28T14:00:22;1.30;;;1.20;;
7233;SDS011;3658;47.992;10.158;2023-12-28T14:02:49;3.00;;;1.97;;
7233;SDS011;3658;47.992;10.158;2023-12-28T14:05:19;2.60;;;1.50;;
7233;SDS011;3658;47.992;10.158;2023-12-28T14:07:46;1.70;;;1.60;;
7233;SDS011;3658;47.992;10.158;2023-12-28T14:10:13;2.33;;;1.57;;
7233;SDS011;3658;47.992;10.158;2023-12-28T14:12:40;2.73;;;1.20;;
7233;SDS011;3658;47.992;10.158;2023-12-28T14:15:08;3.17;;;1.20;;
7233;SDS011;3658;47.992;10.158;2023-12-28T14:17:35;1.47;;;1.37;;
7233;SDS011;3658;47.992;10.158;2023-12-28T14:20:02;2.53;;;1.50;;
7233;SDS011;3658;47.992;10.158;2023-12-28T14:22:34;1.50;;;1.40;;
7233;SDS011;3658;47.992;10.158;2023-12-28T14:25:01;3.43;;;1.30;;
7233;SDS011;3658;47.992;10.158;2023-12-28T14:27:29;2.00;;;1.50;;
7233;SDS011;3658;47.992;10.158;2023-12-28T14:29:57;1.40;;;1.30;;
7233;SDS011;3658;47.992;10.158;2023-12-28T14:32:28;1.67;;;1.27;;
7233;SDS011;3658;47.992;10.158;2023-12-28T14:34:56;1.40;;;1.30;;
7233;SDS011;3658;47.992;10.158;2023-12-28T14:37:23;1.23;;;1.13;;
7233;SDS011;3658;47.992;10.158;2023-12-28T14:39:51;1.63;;;1.30;;
7233;SDS011;3658;47.992;10.158;2023-12-28T14:42:18;3.37;;;2.30;;
7233;SDS011;3658;47.992;10.158;2023-12-28T14:44:45;3.30;;;2.63;;
7233;SDS011;3658;47.992;10.158;2023-12-28T14:47:12;2.80;;;2.23;;
7233;SDS011;3658;47.992;10.158;2023-12-28T14:49:39;2.43;;;2.10;;
7233;SDS011;3658;47.992;10.158;2023-12-28T14:52:06;2.57;;;2.37;;
7233;SDS011;3658;47.992;10.158;2023-12-28T14:54:33;3.43;;;2.47;;
7233;SDS011;3658;47.992;10.158;2023-12-28T14:57:01;2.97;;;2.30;;
7233;SDS011;3658;47.992;10.158;2023-12-28T14:59:27;3.13;;;2.30;;
7233;SDS011;3658;47.992;10.158;2023-12-28T15:01:54;2.20;;;2.00;;